sensor_id;sensor_type;location;lat;lon;timestamp;temperature;humidity
46037;DHT22;31769;49.304;8.428;2023-02-28T00:01:13;2.10;99.90
46037;DHT22;31769;49.304;8.428;2023-02-28T00:04:14;2.10;99.90
46037;DHT22;31769;49.304;8.428;2023-02-28T00:07:15;2.00;99.90
46037;DHT22;31769;49.304;8.428;2023-02-28T00:10:24;2.10;99.90
46037;DHT22;31769;49.304;8.428;2023-02-28T00:13:25;2.10;99.90
46037;DHT22;31769;49.304;8.428;2023-02-28T00:16:26;2.10;99.90
46037;DHT22;31769;49.304;8.428;2023-02-28T00:19:27;2.00;99.90
46037;DHT22;31769;49.304;8.428;2023-02-28T00:22:28;2.00;99.90
46037;DHT22;31769;49.304;8.428;2023-02-28T00:25:28;2.10;99.90
46037;DHT22;31769;49.304;8.428;2023-02-28T00:28:29;2.10;99.90
46037;DHT22;31769;49.304;8.428;2023-02-28T00:31:33;1.90;99.90
46037;DHT22;31769;49.304;8.428;2023-02-28T00:34:33;1.90;99.90
46037;DHT22;31769;49.304;8.428;2023-02-28T00:37:38;1.90;99.90
46037;DHT22;31769;49.304;8.428;2023-02-28T00:40:39;1.90;99.90
46037;DHT22;31769;49.304;8.428;2023-02-28T00:43:40;1.80;99.90
46037;DHT22;31769;49.304;8.428;2023-02-28T00:46:41;1.70;99.90
46037;DHT22;31769;49.304;8.428;2023-02-28T00:49:42;1.70;99.90
46037;DHT22;31769;49.304;8.428;2023-02-28T00:52:43;1.60;99.90
46037;DHT22;31769;49.304;8.428;2023-02-28T00:55:44;1.60;99.90
46037;DHT22;31769;49.304;8.428;2023-02-28T00:58:45;1.50;99.90
46037;DHT22;31769;49.304;8.428;2023-02-28T01:01:46;1.40;99.90
46037;DHT22;31769;49.304;8.428;2023-02-28T01:04:47;1.50;99.90
46037;DHT22;31769;49.304;8.428;2023-02-28T01:07:47;1.50;99.90
46037;DHT22;31769;49.304;8.428;2023-02-28T01:10:48;1.40;99.90
46037;DHT22;31769;49.304;8.428;2023-02-28T01:13:49;1.40;99.90
46037;DHT22;31769;49.304;8.428;2023-02-28T01:16:50;1.40;99.90
46037;DHT22;31769;49.304;8.428;2023-02-28T01:19:54;1.40;99.90
46037;DHT22;31769;49.304;8.428;2023-02-28T01:22:55;1.40;99.90
46037;DHT22;31769;49.304;8.428;2023-02-28T01:25:56;1.30;99.90
46037;DHT22;31769;49.304;8.428;2023-02-28T01:28:57;1.30;99.90
46037;DHT22;31769;49.304;8.428;2023-02-28T01:31:59;1.30;99.90
46037;DHT22;31769;49.304;8.428;2023-02-28T01:35:00;1.30;99.90
46037;DHT22;31769;49.304;8.428;2023-02-28T01:38:01;1.20;99.90
46037;DHT22;31769;49.304;8.428;2023-02-28T01:41:03;1.20;99.90
46037;DHT22;31769;49.304;8.428;2023-02-28T01:47:43;1.20;99.90
46037;DHT22;31769;49.304;8.428;2023-02-28T01:50:46;1.20;99.90
46037;DHT22;31769;49.304;8.428;2023-02-28T01:53:52;1.10;99.90
46037;DHT22;31769;49.304;8.428;2023-02-28T01:56:59;1.10;99.90
46037;DHT22;31769;49.304;8.428;2023-02-28T02:00:05;1.00;99.90
46037;DHT22;31769;49.304;8.428;2023-02-28T02:03:16;1.00;99.90
46037;DHT22;31769;49.304;8.428;2023-02-28T02:06:19;1.10;99.90
46037;DHT22;31769;49.304;8.428;2023-02-28T02:09:20;1.00;99.90
46037;DHT22;31769;49.304;8.428;2023-02-28T02:13:10;0.90;99.90
46037;DHT22;31769;49.304;8.428;2023-02-28T02:16:23;1.00;99.90
46037;DHT22;31769;49.304;8.428;2023-02-28T02:19:54;0.90;99.90
46037;DHT22;31769;49.304;8.428;2023-02-28T02:23:25;0.90;99.90
46037;DHT22;31769;49.304;8.428;2023-02-28T02:37:15;0.80;99.90
46037;DHT22;31769;49.304;8.428;2023-02-28T02:40:25;0.80;99.90
46037;DHT22;31769;49.304;8.428;2023-02-28T02:43:35;0.80;99.90
46037;DHT22;31769;49.304;8.428;2023-02-28T02:46:45;0.80;99.90
46037;DHT22;31769;49.304;8.428;2023-02-28T02:49:51;0.80;99.90
46037;DHT22;31769;49.304;8.428;2023-02-28T02:52:57;0.70;99.90
46037;DHT22;31769;49.304;8.428;2023-02-28T02:56:01;0.70;99.90
46037;DHT22;31769;49.304;8.428;2023-02-28T02:59:07;0.70;99.90
46037;DHT22;31769;49.304;8.428;2023-02-28T03:02:12;0.70;99.90
46037;DHT22;31769;49.304;8.428;2023-02-28T03:05:29;0.70;99.90
46037;DHT22;31769;49.304;8.428;2023-02-28T03:08:42;0.70;99.90
46037;DHT22;31769;49.304;8.428;2023-02-28T03:11:43;0.70;99.90
46037;DHT22;31769;49.304;8.428;2023-02-28T03:18:45;0.70;99.90
46037;DHT22;31769;49.304;8.428;2023-02-28T03:31:52;0.60;99.90
46037;DHT22;31769;49.304;8.428;2023-02-28T03:35:09;0.60;99.90
46037;DHT22;31769;49.304;8.428;2023-02-28T03:38:27;0.60;99.90
46037;DHT22;31769;49.304;8.428;2023-02-28T03:41:37;0.60;99.90
46037;DHT22;31769;49.304;8.428;2023-02-28T03:44:54;0.50;99.90
46037;DHT22;31769;49.304;8.428;2023-02-28T03:48:02;0.50;99.90
46037;DHT22;31769;49.304;8.428;2023-02-28T03:51:09;0.40;99.90
46037;DHT22;31769;49.304;8.428;2023-02-28T03:54:19;0.50;99.90
46037;DHT22;31769;49.304;8.428;2023-02-28T04:01:07;0.40;99.90
46037;DHT22;31769;49.304;8.428;2023-02-28T04:04:09;0.40;99.90
46037;DHT22;31769;49.304;8.428;2023-02-28T04:07:11;0.40;99.90
46037;DHT22;31769;49.304;8.428;2023-02-28T04:10:13;0.40;99.90
46037;DHT22;31769;49.304;8.428;2023-02-28T04:13:13;0.30;99.90
46037;DHT22;31769;49.304;8.428;2023-02-28T04:16:14;0.30;99.90
46037;DHT22;31769;49.304;8.428;2023-02-28T04:19:15;0.30;99.90
46037;DHT22;31769;49.304;8.428;2023-02-28T04:22:15;0.30;99.90
46037;DHT22;31769;49.304;8.428;2023-02-28T04:25:18;0.40;99.90
46037;DHT22;31769;49.304;8.428;2023-02-28T04:28:18;0.40;99.90
46037;DHT22;31769;49.304;8.428;2023-02-28T04:31:19;0.40;99.90
46037;DHT22;31769;49.304;8.428;2023-02-28T04:34:20;0.30;99.90
46037;DHT22;31769;49.304;8.428;2023-02-28T04:37:21;0.40;99.90
46037;DHT22;31769;49.304;8.428;2023-02-28T04:40:28;0.50;99.90
46037;DHT22;31769;49.304;8.428;2023-02-28T04:43:29;0.40;99.90
46037;DHT22;31769;49.304;8.428;2023-02-28T04:46:30;0.40;99.90
46037;DHT22;31769;49.304;8.428;2023-02-28T04:49:31;0.40;99.90
46037;DHT22;31769;49.304;8.428;2023-02-28T04:52:31;0.40;99.90
46037;DHT22;31769;49.304;8.428;2023-02-28T04:55:32;0.50;99.90
46037;DHT22;31769;49.304;8.428;2023-02-28T04:58:34;0.50;99.90
46037;DHT22;31769;49.304;8.428;2023-02-28T05:01:35;0.50;99.90
46037;DHT22;31769;49.304;8.428;2023-02-28T05:04:36;0.60;99.90
46037;DHT22;31769;49.304;8.428;2023-02-28T05:07:37;0.60;99.90
46037;DHT22;31769;49.304;8.428;2023-02-28T05:10:38;0.70;99.90
46037;DHT22;31769;49.304;8.428;2023-02-28T05:13:39;0.60;99.90
46037;DHT22;31769;49.304;8.428;2023-02-28T05:16:40;0.70;99.90
46037;DHT22;31769;49.304;8.428;2023-02-28T05:19:40;0.60;99.90
46037;DHT22;31769;49.304;8.428;2023-02-28T05:22:41;0.70;99.90
46037;DHT22;31769;49.304;8.428;2023-02-28T05:25:42;0.70;99.90
46037;DHT22;31769;49.304;8.428;2023-02-28T05:28:43;0.80;99.90
46037;DHT22;31769;49.304;8.428;2023-02-28T05:31:44;0.70;99.90
46037;DHT22;31769;49.304;8.428;2023-02-28T05:34:44;0.30;99.90
46037;DHT22;31769;49.304;8.428;2023-02-28T05:37:45;0.90;99.90
46037;DHT22;31769;49.304;8.428;2023-02-28T05:40:46;0.90;99.90
46037;DHT22;31769;49.304;8.428;2023-02-28T05:43:47;1.00;99.90
46037;DHT22;31769;49.304;8.428;2023-02-28T05:46:48;1.00;99.90
46037;DHT22;31769;49.304;8.428;2023-02-28T05:49:48;1.10;99.90
46037;DHT22;31769;49.304;8.428;2023-02-28T05:52:50;1.20;99.90
46037;DHT22;31769;49.304;8.428;2023-02-28T05:55:51;1.20;99.90
46037;DHT22;31769;49.304;8.428;2023-02-28T05:58:51;1.10;99.90
46037;DHT22;31769;49.304;8.428;2023-02-28T06:01:52;1.10;99.90
46037;DHT22;31769;49.304;8.428;2023-02-28T06:04:53;1.10;99.90
46037;DHT22;31769;49.304;8.428;2023-02-28T06:07:54;1.10;99.90
46037;DHT22;31769;49.304;8.428;2023-02-28T06:10:54;1.10;99.90
46037;DHT22;31769;49.304;8.428;2023-02-28T06:13:59;1.20;99.90
46037;DHT22;31769;49.304;8.428;2023-02-28T06:17:01;1.20;99.90
46037;DHT22;31769;49.304;8.428;2023-02-28T06:20:02;1.20;99.90
46037;DHT22;31769;49.304;8.428;2023-02-28T06:23:03;1.20;99.90
46037;DHT22;31769;49.304;8.428;2023-02-28T06:26:04;1.20;99.90
46037;DHT22;31769;49.304;8.428;2023-02-28T06:29:04;1.30;99.90
46037;DHT22;31769;49.304;8.428;2023-02-28T06:32:06;1.20;99.90
46037;DHT22;31769;49.304;8.428;2023-02-28T06:35:06;1.30;99.90
46037;DHT22;31769;49.304;8.428;2023-02-28T06:38:07;1.30;99.90
46037;DHT22;31769;49.304;8.428;2023-02-28T06:41:09;1.40;99.90
46037;DHT22;31769;49.304;8.428;2023-02-28T06:44:15;1.40;99.90
46037;DHT22;31769;49.304;8.428;2023-02-28T06:47:16;1.40;99.90
46037;DHT22;31769;49.304;8.428;2023-02-28T06:50:17;1.40;99.90
46037;DHT22;31769;49.304;8.428;2023-02-28T06:53:19;1.40;99.90
46037;DHT22;31769;49.304;8.428;2023-02-28T06:56:20;1.40;99.90
46037;DHT22;31769;49.304;8.428;2023-02-28T06:59:21;1.50;99.90
46037;DHT22;31769;49.304;8.428;2023-02-28T07:02:22;1.50;99.90
46037;DHT22;31769;49.304;8.428;2023-02-28T07:05:22;1.70;99.90
46037;DHT22;31769;49.304;8.428;2023-02-28T07:08:24;1.70;99.90
46037;DHT22;31769;49.304;8.428;2023-02-28T07:11:26;1.70;99.90
46037;DHT22;31769;49.304;8.428;2023-02-28T07:14:27;1.70;99.90
46037;DHT22;31769;49.304;8.428;2023-02-28T07:17:27;1.80;99.90
46037;DHT22;31769;49.304;8.428;2023-02-28T07:20:28;1.70;99.90
46037;DHT22;31769;49.304;8.428;2023-02-28T07:23:29;1.70;99.90
46037;DHT22;31769;49.304;8.428;2023-02-28T07:26:30;1.80;99.90
46037;DHT22;31769;49.304;8.428;2023-02-28T07:29:31;2.00;99.90
46037;DHT22;31769;49.304;8.428;2023-02-28T07:32:32;2.20;99.90
46037;DHT22;31769;49.304;8.428;2023-02-28T07:35:32;2.40;99.90
46037;DHT22;31769;49.304;8.428;2023-02-28T07:38:35;2.50;99.90
46037;DHT22;31769;49.304;8.428;2023-02-28T07:41:36;2.60;99.90
46037;DHT22;31769;49.304;8.428;2023-02-28T07:44:43;2.60;99.90
46037;DHT22;31769;49.304;8.428;2023-02-28T07:47:44;2.70;99.90
46037;DHT22;31769;49.304;8.428;2023-02-28T07:50:44;2.70;99.90
46037;DHT22;31769;49.304;8.428;2023-02-28T07:53:48;2.70;99.90
46037;DHT22;31769;49.304;8.428;2023-02-28T07:56:49;2.90;99.90
46037;DHT22;31769;49.304;8.428;2023-02-28T07:59:50;3.00;99.90
46037;DHT22;31769;49.304;8.428;2023-02-28T08:02:50;3.30;99.90
46037;DHT22;31769;49.304;8.428;2023-02-28T08:05:51;3.40;99.90
46037;DHT22;31769;49.304;8.428;2023-02-28T08:08:53;3.60;99.90
46037;DHT22;31769;49.304;8.428;2023-02-28T08:11:53;3.70;99.90
46037;DHT22;31769;49.304;8.428;2023-02-28T08:14:54;3.90;99.90
46037;DHT22;31769;49.304;8.428;2023-02-28T08:17:55;3.90;99.90
46037;DHT22;31769;49.304;8.428;2023-02-28T08:20:56;4.10;99.90
46037;DHT22;31769;49.304;8.428;2023-02-28T08:23:57;4.30;99.90
46037;DHT22;31769;49.304;8.428;2023-02-28T08:26:58;4.30;99.90
46037;DHT22;31769;49.304;8.428;2023-02-28T08:29:59;4.40;99.90
46037;DHT22;31769;49.304;8.428;2023-02-28T08:32:59;4.40;99.90
46037;DHT22;31769;49.304;8.428;2023-02-28T08:36:02;4.30;99.90
46037;DHT22;31769;49.304;8.428;2023-02-28T08:39:03;4.40;99.90
46037;DHT22;31769;49.304;8.428;2023-02-28T08:42:04;4.30;99.90
46037;DHT22;31769;49.304;8.428;2023-02-28T08:45:06;4.50;99.90
46037;DHT22;31769;49.304;8.428;2023-02-28T08:48:06;4.60;99.90
46037;DHT22;31769;49.304;8.428;2023-02-28T08:51:14;4.70;99.90
46037;DHT22;31769;49.304;8.428;2023-02-28T08:54:18;4.60;99.90
46037;DHT22;31769;49.304;8.428;2023-02-28T08:57:19;4.70;99.90
46037;DHT22;31769;49.304;8.428;2023-02-28T09:00:21;4.70;99.90
46037;DHT22;31769;49.304;8.428;2023-02-28T09:03:22;4.70;99.90
46037;DHT22;31769;49.304;8.428;2023-02-28T09:06:25;4.60;99.90
46037;DHT22;31769;49.304;8.428;2023-02-28T09:09:26;4.60;99.90
46037;DHT22;31769;49.304;8.428;2023-02-28T09:12:27;4.70;99.90
46037;DHT22;31769;49.304;8.428;2023-02-28T09:15:32;4.80;99.60
46037;DHT22;31769;49.304;8.428;2023-02-28T09:18:36;4.70;99.90
46037;DHT22;31769;49.304;8.428;2023-02-28T09:21:37;4.90;99.70
46037;DHT22;31769;49.304;8.428;2023-02-28T09:24:38;4.90;99.70
46037;DHT22;31769;49.304;8.428;2023-02-28T09:27:39;4.90;99.30
46037;DHT22;31769;49.304;8.428;2023-02-28T09:30:39;4.90;99.60
46037;DHT22;31769;49.304;8.428;2023-02-28T09:33:40;4.60;99.20
46037;DHT22;31769;49.304;8.428;2023-02-28T09:36:41;4.50;99.70
46037;DHT22;31769;49.304;8.428;2023-02-28T09:39:42;4.50;99.50
46037;DHT22;31769;49.304;8.428;2023-02-28T09:42:44;4.60;99.90
46037;DHT22;31769;49.304;8.428;2023-02-28T09:45:51;4.40;99.60
46037;DHT22;31769;49.304;8.428;2023-02-28T09:48:53;4.40;99.70
46037;DHT22;31769;49.304;8.428;2023-02-28T09:52:03;4.50;99.80
46037;DHT22;31769;49.304;8.428;2023-02-28T09:55:33;4.50;99.50
46037;DHT22;31769;49.304;8.428;2023-02-28T09:58:39;4.70;99.20
46037;DHT22;31769;49.304;8.428;2023-02-28T10:05:08;5.30;97.90
46037;DHT22;31769;49.304;8.428;2023-02-28T10:08:19;5.50;97.10
46037;DHT22;31769;49.304;8.428;2023-02-28T10:11:26;5.70;96.60
46037;DHT22;31769;49.304;8.428;2023-02-28T10:14:30;5.70;96.10
46037;DHT22;31769;49.304;8.428;2023-02-28T10:17:40;5.80;95.40
46037;DHT22;31769;49.304;8.428;2023-02-28T10:20:42;6.00;95.30
46037;DHT22;31769;49.304;8.428;2023-02-28T10:23:43;6.20;94.70
46037;DHT22;31769;49.304;8.428;2023-02-28T10:26:48;6.60;94.10
46037;DHT22;31769;49.304;8.428;2023-02-28T10:29:57;7.00;93.50
46037;DHT22;31769;49.304;8.428;2023-02-28T10:32:59;7.10;91.70
46037;DHT22;31769;49.304;8.428;2023-02-28T10:36:01;7.10;91.30
46037;DHT22;31769;49.304;8.428;2023-02-28T10:39:35;7.10;91.20
46037;DHT22;31769;49.304;8.428;2023-02-28T10:42:37;7.50;90.80
46037;DHT22;31769;49.304;8.428;2023-02-28T10:45:39;7.90;89.00
46037;DHT22;31769;49.304;8.428;2023-02-28T10:49:07;8.30;87.00
46037;DHT22;31769;49.304;8.428;2023-02-28T10:52:12;8.50;86.40
46037;DHT22;31769;49.304;8.428;2023-02-28T10:55:22;8.60;85.00
46037;DHT22;31769;49.304;8.428;2023-02-28T10:58:25;8.50;83.30
46037;DHT22;31769;49.304;8.428;2023-02-28T11:01:36;8.50;84.00
46037;DHT22;31769;49.304;8.428;2023-02-28T11:04:37;8.30;82.00
46037;DHT22;31769;49.304;8.428;2023-02-28T11:07:40;8.30;81.80
46037;DHT22;31769;49.304;8.428;2023-02-28T11:10:47;8.30;82.40
46037;DHT22;31769;49.304;8.428;2023-02-28T11:13:51;8.50;81.90
46037;DHT22;31769;49.304;8.428;2023-02-28T11:16:53;8.60;81.30
46037;DHT22;31769;49.304;8.428;2023-02-28T11:19:57;8.90;80.80
46037;DHT22;31769;49.304;8.428;2023-02-28T11:23:01;8.90;79.60
46037;DHT22;31769;49.304;8.428;2023-02-28T11:26:03;8.90;78.80
46037;DHT22;31769;49.304;8.428;2023-02-28T11:29:32;9.10;78.60
46037;DHT22;31769;49.304;8.428;2023-02-28T11:32:32;8.90;78.30
46037;DHT22;31769;49.304;8.428;2023-02-28T11:35:36;8.80;78.40
46037;DHT22;31769;49.304;8.428;2023-02-28T11:38:38;8.80;78.70
46037;DHT22;31769;49.304;8.428;2023-02-28T11:45:11;9.10;78.20
46037;DHT22;31769;49.304;8.428;2023-02-28T11:48:22;9.60;77.30
46037;DHT22;31769;49.304;8.428;2023-02-28T11:51:32;9.80;75.10
46037;DHT22;31769;49.304;8.428;2023-02-28T11:55:23;9.90;74.00
46037;DHT22;31769;49.304;8.428;2023-02-28T11:58:38;10.30;73.10
46037;DHT22;31769;49.304;8.428;2023-02-28T12:02:02;10.60;71.90
46037;DHT22;31769;49.304;8.428;2023-02-28T12:11:59;14.30;61.10
46037;DHT22;31769;49.304;8.428;2023-02-28T12:21:43;22.90;43.50
46037;DHT22;31769;49.304;8.428;2023-02-28T12:25:09;24.00;39.60
46037;DHT22;31769;49.304;8.428;2023-02-28T12:28:16;24.60;37.90
46037;DHT22;31769;49.304;8.428;2023-02-28T12:31:21;24.20;37.40
46037;DHT22;31769;49.304;8.428;2023-02-28T12:34:28;24.20;36.90
46037;DHT22;31769;49.304;8.428;2023-02-28T12:37:37;25.10;36.20
46037;DHT22;31769;49.304;8.428;2023-02-28T12:40:53;27.30;34.10
46037;DHT22;31769;49.304;8.428;2023-02-28T12:44:02;28.70;33.10
46037;DHT22;31769;49.304;8.428;2023-02-28T12:47:08;28.80;32.50
46037;DHT22;31769;49.304;8.428;2023-02-28T12:50:09;29.20;32.10
46037;DHT22;31769;49.304;8.428;2023-02-28T12:53:39;29.10;31.50
46037;DHT22;31769;49.304;8.428;2023-02-28T12:57:04;29.60;31.50
46037;DHT22;31769;49.304;8.428;2023-02-28T13:00:37;30.50;31.00
46037;DHT22;31769;49.304;8.428;2023-02-28T13:06:58;31.30;30.40
46037;DHT22;31769;49.304;8.428;2023-02-28T13:10:02;32.40;29.50
46037;DHT22;31769;49.304;8.428;2023-02-28T13:13:04;32.20;29.70
46037;DHT22;31769;49.304;8.428;2023-02-28T13:16:06;31.90;29.50
46037;DHT22;31769;49.304;8.428;2023-02-28T13:19:10;32.20;29.50
46037;DHT22;31769;49.304;8.428;2023-02-28T13:23:03;33.50;29.20
46037;DHT22;31769;49.304;8.428;2023-02-28T13:25:51;32.80;28.80
46037;DHT22;31769;49.304;8.428;2023-02-28T13:32:39;32.90;28.90
46037;DHT22;31769;49.304;8.428;2023-02-28T13:35:43;33.60;28.70
46037;DHT22;31769;49.304;8.428;2023-02-28T13:38:47;35.00;28.50
46037;DHT22;31769;49.304;8.428;2023-02-28T13:41:48;35.70;28.30
46037;DHT22;31769;49.304;8.428;2023-02-28T13:48:19;32.20;28.50
46037;DHT22;31769;49.304;8.428;2023-02-28T14:08:14;26.50;31.50
46037;DHT22;31769;49.304;8.428;2023-02-28T14:11:27;30.00;30.10
46037;DHT22;31769;49.304;8.428;2023-02-28T14:17:37;30.80;28.80
46037;DHT22;31769;49.304;8.428;2023-02-28T14:20:40;31.20;29.00
46037;DHT22;31769;49.304;8.428;2023-02-28T14:30:55;35.20;27.60
46037;DHT22;31769;49.304;8.428;2023-02-28T14:34:05;34.40;28.00
46037;DHT22;31769;49.304;8.428;2023-02-28T14:37:20;33.50;28.10
46037;DHT22;31769;49.304;8.428;2023-02-28T14:40:30;31.40;28.80
46037;DHT22;31769;49.304;8.428;2023-02-28T14:43:32;32.20;28.40
46037;DHT22;31769;49.304;8.428;2023-02-28T14:46:39;33.30;28.40
46037;DHT22;31769;49.304;8.428;2023-02-28T14:49:45;33.60;28.30
46037;DHT22;31769;49.304;8.428;2023-02-28T14:52:48;33.90;28.10
46037;DHT22;31769;49.304;8.428;2023-02-28T14:55:52;34.10;27.90
46037;DHT22;31769;49.304;8.428;2023-02-28T14:58:55;34.70;27.80
46037;DHT22;31769;49.304;8.428;2023-02-28T15:05:33;33.70;27.90
46037;DHT22;31769;49.304;8.428;2023-02-28T15:08:34;33.40;27.90
46037;DHT22;31769;49.304;8.428;2023-02-28T15:11:37;33.40;28.00
46037;DHT22;31769;49.304;8.428;2023-02-28T15:14:42;33.40;27.90
46037;DHT22;31769;49.304;8.428;2023-02-28T15:17:50;33.10;28.10
46037;DHT22;31769;49.304;8.428;2023-02-28T15:20:51;32.70;28.10
46037;DHT22;31769;49.304;8.428;2023-02-28T15:23:56;32.70;28.00
46037;DHT22;31769;49.304;8.428;2023-02-28T15:27:04;31.90;28.50
46037;DHT22;31769;49.304;8.428;2023-02-28T15:30:08;31.60;28.90
46037;DHT22;31769;49.304;8.428;2023-02-28T15:33:21;31.50;28.70
46037;DHT22;31769;49.304;8.428;2023-02-28T15:36:31;31.50;28.50
46037;DHT22;31769;49.304;8.428;2023-02-28T15:39:48;30.70;28.80
46037;DHT22;31769;49.304;8.428;2023-02-28T15:46:09;30.50;28.90
46037;DHT22;31769;49.304;8.428;2023-02-28T15:49:19;30.20;29.10
46037;DHT22;31769;49.304;8.428;2023-02-28T15:55:37;29.40;29.40
46037;DHT22;31769;49.304;8.428;2023-02-28T15:58:37;29.00;29.40
46037;DHT22;31769;49.304;8.428;2023-02-28T16:01:39;28.20;29.70
46037;DHT22;31769;49.304;8.428;2023-02-28T16:08:14;27.50;30.00
46037;DHT22;31769;49.304;8.428;2023-02-28T16:11:15;27.20;30.10
46037;DHT22;31769;49.304;8.428;2023-02-28T16:14:19;26.30;30.70
46037;DHT22;31769;49.304;8.428;2023-02-28T16:17:23;25.60;31.10
46037;DHT22;31769;49.304;8.428;2023-02-28T16:20:25;24.80;31.70
46037;DHT22;31769;49.304;8.428;2023-02-28T16:23:26;23.70;32.40
46037;DHT22;31769;49.304;8.428;2023-02-28T16:26:27;22.80;33.50
46037;DHT22;31769;49.304;8.428;2023-02-28T16:29:36;21.60;34.80
46037;DHT22;31769;49.304;8.428;2023-02-28T16:32:37;20.70;36.30
46037;DHT22;31769;49.304;8.428;2023-02-28T16:35:38;19.90;36.30
46037;DHT22;31769;49.304;8.428;2023-02-28T16:38:38;18.80;37.70
46037;DHT22;31769;49.304;8.428;2023-02-28T16:41:42;17.90;38.80
46037;DHT22;31769;49.304;8.428;2023-02-28T16:44:43;17.00;40.10
46037;DHT22;31769;49.304;8.428;2023-02-28T16:47:44;16.10;41.30
46037;DHT22;31769;49.304;8.428;2023-02-28T16:50:45;14.90;42.70
46037;DHT22;31769;49.304;8.428;2023-02-28T16:53:45;13.90;44.50
46037;DHT22;31769;49.304;8.428;2023-02-28T16:56:48;13.40;45.40
46037;DHT22;31769;49.304;8.428;2023-02-28T16:59:50;12.10;47.40
46037;DHT22;31769;49.304;8.428;2023-02-28T17:02:53;11.00;49.50
46037;DHT22;31769;49.304;8.428;2023-02-28T17:05:54;10.20;51.60
46037;DHT22;31769;49.304;8.428;2023-02-28T17:08:57;9.40;53.30
46037;DHT22;31769;49.304;8.428;2023-02-28T17:11:58;8.60;54.90
46037;DHT22;31769;49.304;8.428;2023-02-28T17:14:59;8.10;56.30
46037;DHT22;31769;49.304;8.428;2023-02-28T17:18:00;7.90;57.50
46037;DHT22;31769;49.304;8.428;2023-02-28T17:21:01;7.40;58.30
46037;DHT22;31769;49.304;8.428;2023-02-28T17:24:01;7.10;59.20
46037;DHT22;31769;49.304;8.428;2023-02-28T17:27:02;7.00;60.10
46037;DHT22;31769;49.304;8.428;2023-02-28T17:33:15;6.40;61.90
46037;DHT22;31769;49.304;8.428;2023-02-28T17:36:21;6.20;63.30
46037;DHT22;31769;49.304;8.428;2023-02-28T17:39:23;6.00;64.30
46037;DHT22;31769;49.304;8.428;2023-02-28T17:42:26;5.90;64.60
46037;DHT22;31769;49.304;8.428;2023-02-28T17:45:27;5.90;66.00
46037;DHT22;31769;49.304;8.428;2023-02-28T17:48:27;5.80;66.20
46037;DHT22;31769;49.304;8.428;2023-02-28T17:51:29;5.70;67.00
46037;DHT22;31769;49.304;8.428;2023-02-28T17:54:30;5.70;68.00
46037;DHT22;31769;49.304;8.428;2023-02-28T17:57:31;5.70;68.80
46037;DHT22;31769;49.304;8.428;2023-02-28T18:00:32;5.70;70.40
46037;DHT22;31769;49.304;8.428;2023-02-28T18:03:33;5.60;71.40
46037;DHT22;31769;49.304;8.428;2023-02-28T18:06:43;5.50;73.10
46037;DHT22;31769;49.304;8.428;2023-02-28T18:09:47;5.50;76.20
46037;DHT22;31769;49.304;8.428;2023-02-28T18:12:51;5.50;76.70
46037;DHT22;31769;49.304;8.428;2023-02-28T18:15:52;5.40;77.60
46037;DHT22;31769;49.304;8.428;2023-02-28T18:18:52;5.30;77.80
46037;DHT22;31769;49.304;8.428;2023-02-28T18:21:53;5.30;78.60
46037;DHT22;31769;49.304;8.428;2023-02-28T18:24:54;5.20;79.70
46037;DHT22;31769;49.304;8.428;2023-02-28T18:27:55;5.20;81.40
46037;DHT22;31769;49.304;8.428;2023-02-28T18:31:05;5.50;82.60
46037;DHT22;31769;49.304;8.428;2023-02-28T18:34:07;5.40;83.70
46037;DHT22;31769;49.304;8.428;2023-02-28T18:37:07;5.00;83.90
46037;DHT22;31769;49.304;8.428;2023-02-28T18:40:09;5.00;85.30
46037;DHT22;31769;49.304;8.428;2023-02-28T18:43:09;5.00;86.80
46037;DHT22;31769;49.304;8.428;2023-02-28T18:46:13;5.00;87.60
46037;DHT22;31769;49.304;8.428;2023-02-28T18:49:14;4.90;88.80
46037;DHT22;31769;49.304;8.428;2023-02-28T18:52:14;4.90;89.00
46037;DHT22;31769;49.304;8.428;2023-02-28T18:55:15;4.90;90.30
46037;DHT22;31769;49.304;8.428;2023-02-28T18:58:18;4.80;90.50
46037;DHT22;31769;49.304;8.428;2023-02-28T19:01:24;4.80;90.70
46037;DHT22;31769;49.304;8.428;2023-02-28T19:04:30;4.80;91.40
46037;DHT22;31769;49.304;8.428;2023-02-28T19:07:31;4.70;91.80
46037;DHT22;31769;49.304;8.428;2023-02-28T19:10:32;4.70;92.50
46037;DHT22;31769;49.304;8.428;2023-02-28T19:13:32;4.70;92.60
46037;DHT22;31769;49.304;8.428;2023-02-28T19:16:33;4.70;93.30
46037;DHT22;31769;49.304;8.428;2023-02-28T19:19:34;4.60;93.70
46037;DHT22;31769;49.304;8.428;2023-02-28T19:22:35;4.50;94.30
46037;DHT22;31769;49.304;8.428;2023-02-28T19:25:40;4.40;94.50
46037;DHT22;31769;49.304;8.428;2023-02-28T19:28:41;4.30;95.40
46037;DHT22;31769;49.304;8.428;2023-02-28T19:31:42;4.30;95.30
46037;DHT22;31769;49.304;8.428;2023-02-28T19:34:43;4.40;95.70
46037;DHT22;31769;49.304;8.428;2023-02-28T19:37:43;4.40;95.70
46037;DHT22;31769;49.304;8.428;2023-02-28T19:40:44;4.40;96.10
46037;DHT22;31769;49.304;8.428;2023-02-28T19:43:45;4.30;96.30
46037;DHT22;31769;49.304;8.428;2023-02-28T19:46:46;4.40;96.80
46037;DHT22;31769;49.304;8.428;2023-02-28T19:49:47;4.30;96.50
46037;DHT22;31769;49.304;8.428;2023-02-28T19:52:48;4.30;96.90
46037;DHT22;31769;49.304;8.428;2023-02-28T19:55:52;4.30;97.30
46037;DHT22;31769;49.304;8.428;2023-02-28T19:58:56;4.10;97.40
46037;DHT22;31769;49.304;8.428;2023-02-28T20:01:57;4.10;97.90
46037;DHT22;31769;49.304;8.428;2023-02-28T20:04:57;4.10;98.00
46037;DHT22;31769;49.304;8.428;2023-02-28T20:07:59;4.10;98.20
46037;DHT22;31769;49.304;8.428;2023-02-28T20:11:15;4.10;98.70
46037;DHT22;31769;49.304;8.428;2023-02-28T20:14:16;4.00;98.60
46037;DHT22;31769;49.304;8.428;2023-02-28T20:17:17;3.80;99.20
46037;DHT22;31769;49.304;8.428;2023-02-28T20:20:18;3.90;99.20
46037;DHT22;31769;49.304;8.428;2023-02-28T20:23:19;3.90;99.10
46037;DHT22;31769;49.304;8.428;2023-02-28T20:26:20;3.80;99.40
46037;DHT22;31769;49.304;8.428;2023-02-28T20:29:20;3.80;99.70
46037;DHT22;31769;49.304;8.428;2023-02-28T20:32:21;3.80;99.80
46037;DHT22;31769;49.304;8.428;2023-02-28T20:35:22;3.80;99.70
46037;DHT22;31769;49.304;8.428;2023-02-28T20:38:22;3.90;99.80
46037;DHT22;31769;49.304;8.428;2023-02-28T20:41:23;3.80;99.80
46037;DHT22;31769;49.304;8.428;2023-02-28T20:44:24;3.80;99.90
46037;DHT22;31769;49.304;8.428;2023-02-28T20:47:25;3.70;99.90
46037;DHT22;31769;49.304;8.428;2023-02-28T20:50:25;3.70;99.90
46037;DHT22;31769;49.304;8.428;2023-02-28T20:53:26;3.60;99.90
46037;DHT22;31769;49.304;8.428;2023-02-28T20:56:27;3.60;99.90
46037;DHT22;31769;49.304;8.428;2023-02-28T20:59:28;3.60;99.90
46037;DHT22;31769;49.304;8.428;2023-02-28T21:02:29;3.60;99.90
46037;DHT22;31769;49.304;8.428;2023-02-28T21:05:30;3.60;99.90
46037;DHT22;31769;49.304;8.428;2023-02-28T21:08:33;3.50;99.90
46037;DHT22;31769;49.304;8.428;2023-02-28T21:11:38;3.50;99.90
46037;DHT22;31769;49.304;8.428;2023-02-28T21:14:40;3.50;99.90
46037;DHT22;31769;49.304;8.428;2023-02-28T21:17:55;3.40;99.90
46037;DHT22;31769;49.304;8.428;2023-02-28T21:21:07;3.40;99.90
46037;DHT22;31769;49.304;8.428;2023-02-28T21:24:13;3.30;99.90